sensor_id;sensor_type;location;lat;lon;timestamp;P1;durP1;ratioP1;P2;durP2;ratioP2
59587;SDS011;45412;54.472;18.464;2024-02-26T00:01:57;63.30;;;21.40;;
59587;SDS011;45412;54.472;18.464;2024-02-26T00:04:43;63.60;;;21.60;;
59587;SDS011;45412;54.472;18.464;2024-02-26T00:07:29;63.80;;;22.40;;
59587;SDS011;45412;54.472;18.464;2024-02-26T00:10:15;41.20;;;15.40;;
59587;SDS011;45412;54.472;18.464;2024-02-26T00:13:01;30.50;;;10.80;;
59587;SDS011;45412;54.472;18.464;2024-02-26T00:15:47;26.80;;;10.10;;
59587;SDS011;45412;54.472;18.464;2024-02-26T00:18:33;27.80;;;10.80;;
59587;SDS011;45412;54.472;18.464;2024-02-26T00:21:19;23.20;;;9.80;;
59587;SDS011;45412;54.472;18.464;2024-02-26T00:24:06;24.70;;;8.60;;
59587;SDS011;45412;54.472;18.464;2024-02-26T00:26:52;26.30;;;8.80;;
59587;SDS011;45412;54.472;18.464;2024-02-26T00:29:40;22.20;;;8.70;;
59587;SDS011;45412;54.472;18.464;2024-02-26T00:32:26;18.30;;;7.90;;
59587;SDS011;45412;54.472;18.464;2024-02-26T00:35:13;23.70;;;8.90;;
59587;SDS011;45412;54.472;18.464;2024-02-26T00:38:00;29.60;;;10.40;;
59587;SDS011;45412;54.472;18.464;2024-02-26T00:40:47;26.30;;;9.60;;
59587;SDS011;45412;54.472;18.464;2024-02-26T00:43:34;23.20;;;9.60;;
59587;SDS011;45412;54.472;18.464;2024-02-26T00:46:20;24.50;;;9.10;;
59587;SDS011;45412;54.472;18.464;2024-02-26T00:49:06;22.30;;;8.50;;
59587;SDS011;45412;54.472;18.464;2024-02-26T00:51:52;22.80;;;7.80;;
59587;SDS011;45412;54.472;18.464;2024-02-26T00:54:38;19.20;;;7.50;;
59587;SDS011;45412;54.472;18.464;2024-02-26T00:57:25;19.70;;;7.90;;
59587;SDS011;45412;54.472;18.464;2024-02-26T01:00:11;19.00;;;7.20;;
59587;SDS011;45412;54.472;18.464;2024-02-26T01:02:58;18.20;;;7.30;;
59587;SDS011;45412;54.472;18.464;2024-02-26T01:05:46;20.40;;;7.60;;
59587;SDS011;45412;54.472;18.464;2024-02-26T01:08:32;22.30;;;7.80;;
59587;SDS011;45412;54.472;18.464;2024-02-26T01:11:19;22.70;;;7.80;;
59587;SDS011;45412;54.472;18.464;2024-02-26T01:14:05;16.70;;;7.40;;
59587;SDS011;45412;54.472;18.464;2024-02-26T01:16:52;17.30;;;8.00;;
59587;SDS011;45412;54.472;18.464;2024-02-26T01:19:38;16.10;;;6.70;;
59587;SDS011;45412;54.472;18.464;2024-02-26T01:22:24;13.80;;;6.10;;
59587;SDS011;45412;54.472;18.464;2024-02-26T01:25:10;15.60;;;6.90;;
59587;SDS011;45412;54.472;18.464;2024-02-26T01:27:57;16.10;;;7.20;;
59587;SDS011;45412;54.472;18.464;2024-02-26T01:30:43;15.50;;;6.50;;
59587;SDS011;45412;54.472;18.464;2024-02-26T01:33:29;14.50;;;6.70;;
59587;SDS011;45412;54.472;18.464;2024-02-26T01:36:15;14.40;;;6.10;;
59587;SDS011;45412;54.472;18.464;2024-02-26T01:39:02;13.70;;;6.20;;
59587;SDS011;45412;54.472;18.464;2024-02-26T01:41:49;13.90;;;6.50;;
59587;SDS011;45412;54.472;18.464;2024-02-26T01:44:35;12.90;;;5.90;;
59587;SDS011;45412;54.472;18.464;2024-02-26T01:47:23;14.70;;;6.10;;
59587;SDS011;45412;54.472;18.464;2024-02-26T01:50:11;13.50;;;5.90;;
59587;SDS011;45412;54.472;18.464;2024-02-26T01:52:58;15.80;;;6.30;;
59587;SDS011;45412;54.472;18.464;2024-02-26T01:55:44;17.10;;;6.50;;
59587;SDS011;45412;54.472;18.464;2024-02-26T01:58:30;17.20;;;6.50;;
59587;SDS011;45412;54.472;18.464;2024-02-26T02:01:17;17.70;;;6.80;;
59587;SDS011;45412;54.472;18.464;2024-02-26T02:04:07;14.90;;;6.70;;
59587;SDS011;45412;54.472;18.464;2024-02-26T02:06:54;16.80;;;7.40;;
59587;SDS011;45412;54.472;18.464;2024-02-26T02:09:40;14.00;;;6.70;;
59587;SDS011;45412;54.472;18.464;2024-02-26T02:12:27;19.20;;;7.40;;
59587;SDS011;45412;54.472;18.464;2024-02-26T02:15:13;18.00;;;7.40;;
59587;SDS011;45412;54.472;18.464;2024-02-26T02:18:00;14.40;;;6.40;;
59587;SDS011;45412;54.472;18.464;2024-02-26T02:20:46;15.40;;;7.00;;
59587;SDS011;45412;54.472;18.464;2024-02-26T02:23:32;71.70;;;24.40;;
59587;SDS011;45412;54.472;18.464;2024-02-26T02:26:19;16.90;;;6.80;;
59587;SDS011;45412;54.472;18.464;2024-02-26T02:29:06;15.50;;;6.40;;
59587;SDS011;45412;54.472;18.464;2024-02-26T02:31:53;16.80;;;7.10;;
59587;SDS011;45412;54.472;18.464;2024-02-26T02:34:40;64.10;;;23.90;;
59587;SDS011;45412;54.472;18.464;2024-02-26T02:37:27;68.80;;;21.50;;
59587;SDS011;45412;54.472;18.464;2024-02-26T02:40:13;31.60;;;11.30;;
59587;SDS011;45412;54.472;18.464;2024-02-26T02:42:59;45.00;;;14.60;;
59587;SDS011;45412;54.472;18.464;2024-02-26T02:45:45;56.40;;;19.40;;
59587;SDS011;45412;54.472;18.464;2024-02-26T02:48:31;135.40;;;46.20;;
59587;SDS011;45412;54.472;18.464;2024-02-26T02:51:18;41.10;;;18.10;;
59587;SDS011;45412;54.472;18.464;2024-02-26T02:54:04;38.20;;;16.00;;
59587;SDS011;45412;54.472;18.464;2024-02-26T02:56:50;24.40;;;11.30;;
59587;SDS011;45412;54.472;18.464;2024-02-26T02:59:37;26.00;;;10.60;;
59587;SDS011;45412;54.472;18.464;2024-02-26T03:02:23;20.40;;;10.80;;
59587;SDS011;45412;54.472;18.464;2024-02-26T03:05:10;36.30;;;19.20;;
59587;SDS011;45412;54.472;18.464;2024-02-26T03:07:57;40.30;;;20.70;;
59587;SDS011;45412;54.472;18.464;2024-02-26T03:10:44;23.30;;;12.00;;
59587;SDS011;45412;54.472;18.464;2024-02-26T03:13:30;20.20;;;9.90;;
59587;SDS011;45412;54.472;18.464;2024-02-26T03:16:17;23.80;;;12.40;;
59587;SDS011;45412;54.472;18.464;2024-02-26T03:19:03;28.80;;;14.40;;
59587;SDS011;45412;54.472;18.464;2024-02-26T03:21:50;28.50;;;13.40;;
59587;SDS011;45412;54.472;18.464;2024-02-26T03:24:36;23.10;;;11.50;;
59587;SDS011;45412;54.472;18.464;2024-02-26T03:27:22;20.40;;;9.70;;
59587;SDS011;45412;54.472;18.464;2024-02-26T03:30:09;22.90;;;11.10;;
59587;SDS011;45412;54.472;18.464;2024-02-26T03:32:56;19.50;;;10.00;;
59587;SDS011;45412;54.472;18.464;2024-02-26T03:35:42;19.40;;;9.60;;
59587;SDS011;45412;54.472;18.464;2024-02-26T03:38:29;19.70;;;9.40;;
59587;SDS011;45412;54.472;18.464;2024-02-26T03:41:16;20.30;;;8.90;;
59587;SDS011;45412;54.472;18.464;2024-02-26T03:44:02;21.70;;;10.10;;
59587;SDS011;45412;54.472;18.464;2024-02-26T03:46:48;18.50;;;8.70;;
59587;SDS011;45412;54.472;18.464;2024-02-26T03:49:34;21.90;;;9.90;;
59587;SDS011;45412;54.472;18.464;2024-02-26T03:52:21;18.80;;;9.40;;
59587;SDS011;45412;54.472;18.464;2024-02-26T03:55:07;18.00;;;9.10;;
59587;SDS011;45412;54.472;18.464;2024-02-26T03:57:53;18.60;;;8.90;;
59587;SDS011;45412;54.472;18.464;2024-02-26T04:00:39;20.70;;;9.80;;
59587;SDS011;45412;54.472;18.464;2024-02-26T04:03:26;17.80;;;8.80;;
59587;SDS011;45412;54.472;18.464;2024-02-26T04:06:12;20.40;;;9.10;;
59587;SDS011;45412;54.472;18.464;2024-02-26T04:09:01;24.60;;;11.30;;
59587;SDS011;45412;54.472;18.464;2024-02-26T04:11:49;24.00;;;11.10;;
59587;SDS011;45412;54.472;18.464;2024-02-26T04:14:35;24.10;;;10.30;;
59587;SDS011;45412;54.472;18.464;2024-02-26T04:17:21;23.10;;;10.20;;
59587;SDS011;45412;54.472;18.464;2024-02-26T04:20:13;19.80;;;9.90;;
59587;SDS011;45412;54.472;18.464;2024-02-26T04:23:03;20.10;;;9.70;;
59587;SDS011;45412;54.472;18.464;2024-02-26T04:25:49;21.10;;;10.20;;
59587;SDS011;45412;54.472;18.464;2024-02-26T04:28:35;19.80;;;10.20;;
59587;SDS011;45412;54.472;18.464;2024-02-26T04:31:22;21.80;;;10.50;;
59587;SDS011;45412;54.472;18.464;2024-02-26T04:34:08;23.80;;;10.50;;
59587;SDS011;45412;54.472;18.464;2024-02-26T04:36:58;24.90;;;11.50;;
59587;SDS011;45412;54.472;18.464;2024-02-26T04:39:44;26.90;;;12.10;;
59587;SDS011;45412;54.472;18.464;2024-02-26T04:42:32;24.80;;;12.40;;
59587;SDS011;45412;54.472;18.464;2024-02-26T04:45:18;51.50;;;27.20;;
59587;SDS011;45412;54.472;18.464;2024-02-26T04:48:04;26.20;;;14.30;;
59587;SDS011;45412;54.472;18.464;2024-02-26T04:50:51;23.40;;;13.00;;
59587;SDS011;45412;54.472;18.464;2024-02-26T04:53:37;27.90;;;15.60;;
59587;SDS011;45412;54.472;18.464;2024-02-26T04:56:24;26.80;;;14.40;;
59587;SDS011;45412;54.472;18.464;2024-02-26T04:59:11;42.20;;;24.30;;
59587;SDS011;45412;54.472;18.464;2024-02-26T05:01:57;47.90;;;22.00;;
59587;SDS011;45412;54.472;18.464;2024-02-26T05:04:43;55.00;;;24.80;;
59587;SDS011;45412;54.472;18.464;2024-02-26T05:07:29;33.30;;;15.80;;
59587;SDS011;45412;54.472;18.464;2024-02-26T05:10:15;28.30;;;14.00;;
59587;SDS011;45412;54.472;18.464;2024-02-26T05:13:01;24.40;;;12.20;;
59587;SDS011;45412;54.472;18.464;2024-02-26T05:15:47;22.80;;;11.30;;
59587;SDS011;45412;54.472;18.464;2024-02-26T05:18:35;20.60;;;10.50;;
59587;SDS011;45412;54.472;18.464;2024-02-26T05:21:22;23.30;;;11.90;;
59587;SDS011;45412;54.472;18.464;2024-02-26T05:24:07;22.40;;;11.60;;
59587;SDS011;45412;54.472;18.464;2024-02-26T05:26:54;22.30;;;11.10;;
59587;SDS011;45412;54.472;18.464;2024-02-26T05:29:41;22.60;;;10.90;;
59587;SDS011;45412;54.472;18.464;2024-02-26T05:32:27;21.70;;;10.70;;
59587;SDS011;45412;54.472;18.464;2024-02-26T05:35:13;24.20;;;11.80;;
59587;SDS011;45412;54.472;18.464;2024-02-26T05:38:00;25.20;;;12.80;;
59587;SDS011;45412;54.472;18.464;2024-02-26T05:40:47;24.40;;;11.90;;
59587;SDS011;45412;54.472;18.464;2024-02-26T05:43:33;25.30;;;12.10;;
59587;SDS011;45412;54.472;18.464;2024-02-26T05:46:20;23.30;;;11.30;;
59587;SDS011;45412;54.472;18.464;2024-02-26T05:49:06;25.50;;;12.00;;
59587;SDS011;45412;54.472;18.464;2024-02-26T05:51:53;25.60;;;13.30;;
59587;SDS011;45412;54.472;18.464;2024-02-26T05:54:39;24.80;;;12.70;;
59587;SDS011;45412;54.472;18.464;2024-02-26T05:57:25;22.80;;;11.60;;
59587;SDS011;45412;54.472;18.464;2024-02-26T06:00:12;22.90;;;11.30;;
59587;SDS011;45412;54.472;18.464;2024-02-26T06:03:01;23.70;;;10.70;;
59587;SDS011;45412;54.472;18.464;2024-02-26T06:05:48;24.10;;;11.40;;
59587;SDS011;45412;54.472;18.464;2024-02-26T06:08:35;26.40;;;11.90;;
59587;SDS011;45412;54.472;18.464;2024-02-26T06:11:21;26.30;;;13.10;;
59587;SDS011;45412;54.472;18.464;2024-02-26T06:14:08;25.80;;;12.40;;
59587;SDS011;45412;54.472;18.464;2024-02-26T06:16:55;26.90;;;13.00;;
59587;SDS011;45412;54.472;18.464;2024-02-26T06:19:42;29.30;;;13.50;;
59587;SDS011;45412;54.472;18.464;2024-02-26T06:22:29;28.50;;;14.20;;
59587;SDS011;45412;54.472;18.464;2024-02-26T06:25:15;25.00;;;12.40;;
59587;SDS011;45412;54.472;18.464;2024-02-26T06:28:02;25.60;;;13.00;;
59587;SDS011;45412;54.472;18.464;2024-02-26T06:30:48;26.70;;;12.60;;
59587;SDS011;45412;54.472;18.464;2024-02-26T06:33:34;23.20;;;11.30;;
59587;SDS011;45412;54.472;18.464;2024-02-26T06:36:22;25.60;;;12.90;;
59587;SDS011;45412;54.472;18.464;2024-02-26T06:39:08;22.90;;;12.30;;
59587;SDS011;45412;54.472;18.464;2024-02-26T06:41:54;26.10;;;13.40;;
59587;SDS011;45412;54.472;18.464;2024-02-26T06:44:46;26.00;;;13.30;;
59587;SDS011;45412;54.472;18.464;2024-02-26T06:47:32;24.50;;;13.70;;
59587;SDS011;45412;54.472;18.464;2024-02-26T06:50:18;26.50;;;14.30;;
59587;SDS011;45412;54.472;18.464;2024-02-26T06:53:05;23.50;;;12.90;;
59587;SDS011;45412;54.472;18.464;2024-02-26T06:55:52;28.80;;;13.50;;
59587;SDS011;45412;54.472;18.464;2024-02-26T06:58:38;32.40;;;15.00;;
59587;SDS011;45412;54.472;18.464;2024-02-26T07:01:24;29.00;;;14.60;;
59587;SDS011;45412;54.472;18.464;2024-02-26T07:04:10;29.80;;;14.10;;
59587;SDS011;45412;54.472;18.464;2024-02-26T07:06:57;30.80;;;15.80;;
59587;SDS011;45412;54.472;18.464;2024-02-26T07:09:43;38.50;;;17.60;;
59587;SDS011;45412;54.472;18.464;2024-02-26T07:12:30;40.40;;;19.70;;
59587;SDS011;45412;54.472;18.464;2024-02-26T07:15:16;38.30;;;20.20;;
59587;SDS011;45412;54.472;18.464;2024-02-26T07:18:03;39.00;;;19.90;;
59587;SDS011;45412;54.472;18.464;2024-02-26T07:20:50;39.40;;;18.90;;
59587;SDS011;45412;54.472;18.464;2024-02-26T07:23:36;35.60;;;18.10;;
59587;SDS011;45412;54.472;18.464;2024-02-26T07:26:22;40.00;;;19.00;;
59587;SDS011;45412;54.472;18.464;2024-02-26T07:29:10;38.90;;;20.10;;
59587;SDS011;45412;54.472;18.464;2024-02-26T07:31:58;34.10;;;18.80;;
59587;SDS011;45412;54.472;18.464;2024-02-26T07:34:44;32.80;;;17.80;;
59587;SDS011;45412;54.472;18.464;2024-02-26T07:37:31;30.00;;;17.10;;
59587;SDS011;45412;54.472;18.464;2024-02-26T07:40:17;29.30;;;18.20;;
59587;SDS011;45412;54.472;18.464;2024-02-26T07:43:03;32.00;;;19.50;;
59587;SDS011;45412;54.472;18.464;2024-02-26T07:45:49;30.80;;;19.20;;
59587;SDS011;45412;54.472;18.464;2024-02-26T07:48:35;30.50;;;18.50;;
59587;SDS011;45412;54.472;18.464;2024-02-26T07:51:22;28.90;;;18.00;;
59587;SDS011;45412;54.472;18.464;2024-02-26T07:54:08;27.10;;;17.40;;
59587;SDS011;45412;54.472;18.464;2024-02-26T07:56:54;26.10;;;18.20;;
59587;SDS011;45412;54.472;18.464;2024-02-26T07:59:40;26.20;;;18.20;;
59587;SDS011;45412;54.472;18.464;2024-02-26T08:02:26;27.50;;;18.00;;
59587;SDS011;45412;54.472;18.464;2024-02-26T08:05:13;24.90;;;16.60;;
59587;SDS011;45412;54.472;18.464;2024-02-26T08:07:58;26.80;;;17.60;;
59587;SDS011;45412;54.472;18.464;2024-02-26T08:10:45;28.20;;;18.70;;
59587;SDS011;45412;54.472;18.464;2024-02-26T08:13:31;30.30;;;19.50;;
59587;SDS011;45412;54.472;18.464;2024-02-26T08:16:17;28.80;;;19.50;;
59587;SDS011;45412;54.472;18.464;2024-02-26T08:19:05;31.20;;;20.30;;
59587;SDS011;45412;54.472;18.464;2024-02-26T08:21:51;32.30;;;20.90;;
59587;SDS011;45412;54.472;18.464;2024-02-26T08:24:37;27.50;;;18.60;;
59587;SDS011;45412;54.472;18.464;2024-02-26T08:27:24;23.70;;;16.30;;
59587;SDS011;45412;54.472;18.464;2024-02-26T08:30:11;26.60;;;17.70;;
59587;SDS011;45412;54.472;18.464;2024-02-26T08:33:01;26.30;;;16.00;;
59587;SDS011;45412;54.472;18.464;2024-02-26T08:35:48;24.90;;;16.60;;
59587;SDS011;45412;54.472;18.464;2024-02-26T08:38:35;23.00;;;16.00;;
59587;SDS011;45412;54.472;18.464;2024-02-26T08:41:22;22.60;;;15.60;;
59587;SDS011;45412;54.472;18.464;2024-02-26T08:44:08;25.00;;;16.00;;
59587;SDS011;45412;54.472;18.464;2024-02-26T08:46:54;22.40;;;14.70;;
59587;SDS011;45412;54.472;18.464;2024-02-26T08:49:45;23.60;;;15.70;;
59587;SDS011;45412;54.472;18.464;2024-02-26T08:52:32;25.00;;;15.30;;
59587;SDS011;45412;54.472;18.464;2024-02-26T08:55:19;25.90;;;16.20;;
59587;SDS011;45412;54.472;18.464;2024-02-26T08:58:05;24.80;;;14.40;;
59587;SDS011;45412;54.472;18.464;2024-02-26T09:00:51;22.50;;;13.40;;
59587;SDS011;45412;54.472;18.464;2024-02-26T09:03:37;22.10;;;14.20;;
59587;SDS011;45412;54.472;18.464;2024-02-26T09:06:24;20.90;;;12.90;;
59587;SDS011;45412;54.472;18.464;2024-02-26T09:09:10;17.00;;;10.50;;
59587;SDS011;45412;54.472;18.464;2024-02-26T09:11:57;18.00;;;10.50;;
59587;SDS011;45412;54.472;18.464;2024-02-26T09:14:43;15.30;;;9.70;;
59587;SDS011;45412;54.472;18.464;2024-02-26T09:17:29;19.10;;;10.20;;
59587;SDS011;45412;54.472;18.464;2024-02-26T09:20:16;16.50;;;10.10;;
59587;SDS011;45412;54.472;18.464;2024-02-26T09:23:06;16.10;;;9.30;;
59587;SDS011;45412;54.472;18.464;2024-02-26T09:25:52;18.80;;;10.20;;
59587;SDS011;45412;54.472;18.464;2024-02-26T09:28:39;16.10;;;9.80;;
59587;SDS011;45412;54.472;18.464;2024-02-26T09:31:25;15.60;;;9.40;;
59587;SDS011;45412;54.472;18.464;2024-02-26T09:34:11;17.20;;;10.30;;
59587;SDS011;45412;54.472;18.464;2024-02-26T09:36:57;15.10;;;9.40;;
59587;SDS011;45412;54.472;18.464;2024-02-26T09:39:58;16.50;;;9.80;;
59587;SDS011;45412;54.472;18.464;2024-02-26T09:42:45;19.40;;;10.60;;
59587;SDS011;45412;54.472;18.464;2024-02-26T09:45:32;17.10;;;10.80;;
59587;SDS011;45412;54.472;18.464;2024-02-26T09:48:19;16.20;;;10.80;;
59587;SDS011;45412;54.472;18.464;2024-02-26T09:51:05;17.60;;;10.20;;
59587;SDS011;45412;54.472;18.464;2024-02-26T09:53:52;16.00;;;10.20;;
59587;SDS011;45412;54.472;18.464;2024-02-26T09:56:39;17.00;;;10.40;;
59587;SDS011;45412;54.472;18.464;2024-02-26T09:59:42;16.70;;;9.90;;
59587;SDS011;45412;54.472;18.464;2024-02-26T10:02:29;17.00;;;9.30;;
59587;SDS011;45412;54.472;18.464;2024-02-26T10:05:17;16.20;;;10.30;;
59587;SDS011;45412;54.472;18.464;2024-02-26T10:08:08;15.90;;;10.00;;
59587;SDS011;45412;54.472;18.464;2024-02-26T10:10:56;16.60;;;8.90;;
59587;SDS011;45412;54.472;18.464;2024-02-26T10:13:43;16.30;;;9.40;;
59587;SDS011;45412;54.472;18.464;2024-02-26T10:16:30;16.50;;;9.50;;
59587;SDS011;45412;54.472;18.464;2024-02-26T10:19:27;17.80;;;9.90;;
59587;SDS011;45412;54.472;18.464;2024-02-26T10:22:22;13.90;;;8.40;;
59587;SDS011;45412;54.472;18.464;2024-02-26T10:25:09;13.60;;;8.00;;
59587;SDS011;45412;54.472;18.464;2024-02-26T10:27:59;16.60;;;9.00;;
59587;SDS011;45412;54.472;18.464;2024-02-26T10:30:48;14.00;;;8.10;;
59587;SDS011;45412;54.472;18.464;2024-02-26T10:33:36;17.30;;;8.20;;
59587;SDS011;45412;54.472;18.464;2024-02-26T10:36:27;14.40;;;6.90;;
59587;SDS011;45412;54.472;18.464;2024-02-26T10:39:30;13.30;;;7.20;;
59587;SDS011;45412;54.472;18.464;2024-02-26T10:42:16;14.70;;;8.20;;
59587;SDS011;45412;54.472;18.464;2024-02-26T10:45:06;11.80;;;6.10;;
59587;SDS011;45412;54.472;18.464;2024-02-26T10:47:55;12.10;;;5.60;;
59587;SDS011;45412;54.472;18.464;2024-02-26T10:50:41;10.50;;;6.10;;
59587;SDS011;45412;54.472;18.464;2024-02-26T10:53:29;10.80;;;5.40;;
59587;SDS011;45412;54.472;18.464;2024-02-26T10:56:16;11.00;;;5.80;;
59587;SDS011;45412;54.472;18.464;2024-02-26T10:59:04;11.60;;;5.70;;
59587;SDS011;45412;54.472;18.464;2024-02-26T11:01:53;11.50;;;5.50;;
59587;SDS011;45412;54.472;18.464;2024-02-26T11:04:41;11.80;;;6.60;;
59587;SDS011;45412;54.472;18.464;2024-02-26T11:07:28;11.30;;;6.40;;
59587;SDS011;45412;54.472;18.464;2024-02-26T11:10:16;15.10;;;7.90;;
59587;SDS011;45412;54.472;18.464;2024-02-26T11:13:03;14.60;;;7.80;;
59587;SDS011;45412;54.472;18.464;2024-02-26T11:15:52;12.70;;;7.80;;
59587;SDS011;45412;54.472;18.464;2024-02-26T11:18:40;13.90;;;7.80;;
59587;SDS011;45412;54.472;18.464;2024-02-26T11:21:28;14.50;;;8.30;;
59587;SDS011;45412;54.472;18.464;2024-02-26T11:24:26;12.90;;;7.70;;
59587;SDS011;45412;54.472;18.464;2024-02-26T11:27:13;13.60;;;8.40;;
59587;SDS011;45412;54.472;18.464;2024-02-26T11:30:02;14.90;;;8.20;;
59587;SDS011;45412;54.472;18.464;2024-02-26T11:32:51;12.70;;;8.10;;
59587;SDS011;45412;54.472;18.464;2024-02-26T11:35:39;14.00;;;8.90;;
59587;SDS011;45412;54.472;18.464;2024-02-26T11:38:26;13.50;;;8.80;;
59587;SDS011;45412;54.472;18.464;2024-02-26T11:41:15;11.40;;;7.10;;
59587;SDS011;45412;54.472;18.464;2024-02-26T11:44:02;14.00;;;9.30;;
59587;SDS011;45412;54.472;18.464;2024-02-26T11:46:50;14.10;;;8.90;;
59587;SDS011;45412;54.472;18.464;2024-02-26T11:49:37;14.50;;;9.00;;
59587;SDS011;45412;54.472;18.464;2024-02-26T11:52:23;15.00;;;9.00;;
59587;SDS011;45412;54.472;18.464;2024-02-26T11:55:10;15.10;;;9.70;;
59587;SDS011;45412;54.472;18.464;2024-02-26T11:57:56;14.80;;;9.00;;
59587;SDS011;45412;54.472;18.464;2024-02-26T12:00:43;15.90;;;9.80;;
59587;SDS011;45412;54.472;18.464;2024-02-26T12:03:29;15.80;;;9.90;;
59587;SDS011;45412;54.472;18.464;2024-02-26T12:06:17;16.20;;;10.30;;
59587;SDS011;45412;54.472;18.464;2024-02-26T12:09:05;21.70;;;10.10;;
59587;SDS011;45412;54.472;18.464;2024-02-26T12:11:51;17.60;;;9.90;;
59587;SDS011;45412;54.472;18.464;2024-02-26T12:14:50;17.10;;;10.30;;
59587;SDS011;45412;54.472;18.464;2024-02-26T12:17:40;17.10;;;10.50;;
59587;SDS011;45412;54.472;18.464;2024-02-26T12:20:27;18.30;;;10.60;;
59587;SDS011;45412;54.472;18.464;2024-02-26T12:23:15;20.90;;;10.60;;
59587;SDS011;45412;54.472;18.464;2024-02-26T12:26:03;16.20;;;10.60;;
59587;SDS011;45412;54.472;18.464;2024-02-26T12:28:54;17.40;;;10.10;;
59587;SDS011;45412;54.472;18.464;2024-02-26T12:31:40;16.60;;;10.10;;
59587;SDS011;45412;54.472;18.464;2024-02-26T12:34:27;16.40;;;10.10;;
59587;SDS011;45412;54.472;18.464;2024-02-26T12:37:13;16.90;;;10.30;;
59587;SDS011;45412;54.472;18.464;2024-02-26T12:39:59;16.30;;;10.00;;
59587;SDS011;45412;54.472;18.464;2024-02-26T12:42:46;21.40;;;11.50;;
59587;SDS011;45412;54.472;18.464;2024-02-26T12:45:32;17.50;;;9.10;;
59587;SDS011;45412;54.472;18.464;2024-02-26T12:48:20;17.40;;;9.00;;
59587;SDS011;45412;54.472;18.464;2024-02-26T12:51:06;15.90;;;8.70;;
59587;SDS011;45412;54.472;18.464;2024-02-26T12:53:54;14.30;;;8.60;;
59587;SDS011;45412;54.472;18.464;2024-02-26T12:56:41;18.70;;;9.80;;
59587;SDS011;45412;54.472;18.464;2024-02-26T12:59:28;19.50;;;9.70;;
59587;SDS011;45412;54.472;18.464;2024-02-26T13:02:15;17.50;;;10.50;;
59587;SDS011;45412;54.472;18.464;2024-02-26T13:05:02;16.50;;;10.00;;
59587;SDS011;45412;54.472;18.464;2024-02-26T13:07:49;17.60;;;9.60;;
59587;SDS011;45412;54.472;18.464;2024-02-26T13:10:38;17.80;;;9.30;;
59587;SDS011;45412;54.472;18.464;2024-02-26T13:13:24;16.40;;;10.50;;
59587;SDS011;45412;54.472;18.464;2024-02-26T13:16:14;16.70;;;10.00;;
59587;SDS011;45412;54.472;18.464;2024-02-26T13:19:10;19.80;;;11.00;;
59587;SDS011;45412;54.472;18.464;2024-02-26T13:22:04;19.40;;;10.10;;
59587;SDS011;45412;54.472;18.464;2024-02-26T13:24:56;19.70;;;11.00;;
59587;SDS011;45412;54.472;18.464;2024-02-26T13:27:42;21.40;;;11.90;;
59587;SDS011;45412;54.472;18.464;2024-02-26T13:30:29;22.60;;;11.10;;
59587;SDS011;45412;54.472;18.464;2024-02-26T13:33:15;19.20;;;10.70;;
59587;SDS011;45412;54.472;18.464;2024-02-26T13:36:02;17.40;;;9.80;;
59587;SDS011;45412;54.472;18.464;2024-02-26T13:38:53;17.60;;;10.60;;
59587;SDS011;45412;54.472;18.464;2024-02-26T13:41:40;17.30;;;10.00;;
59587;SDS011;45412;54.472;18.464;2024-02-26T13:44:29;15.90;;;9.00;;
59587;SDS011;45412;54.472;18.464;2024-02-26T13:47:16;18.20;;;10.70;;
59587;SDS011;45412;54.472;18.464;2024-02-26T13:50:02;18.70;;;10.50;;
59587;SDS011;45412;54.472;18.464;2024-02-26T13:52:49;18.40;;;9.60;;
59587;SDS011;45412;54.472;18.464;2024-02-26T13:55:40;18.80;;;10.10;;
59587;SDS011;45412;54.472;18.464;2024-02-26T13:58:29;20.80;;;11.20;;
59587;SDS011;45412;54.472;18.464;2024-02-26T14:01:15;19.10;;;10.60;;
59587;SDS011;45412;54.472;18.464;2024-02-26T14:04:02;16.50;;;9.50;;
59587;SDS011;45412;54.472;18.464;2024-02-26T14:06:48;17.80;;;10.80;;
59587;SDS011;45412;54.472;18.464;2024-02-26T14:09:35;22.40;;;10.60;;
59587;SDS011;45412;54.472;18.464;2024-02-26T14:12:35;18.60;;;10.40;;
59587;SDS011;45412;54.472;18.464;2024-02-26T14:15:21;19.60;;;10.20;;
59587;SDS011;45412;54.472;18.464;2024-02-26T14:18:07;18.00;;;9.90;;
59587;SDS011;45412;54.472;18.464;2024-02-26T14:20:54;20.50;;;11.40;;
59587;SDS011;45412;54.472;18.464;2024-02-26T14:23:40;20.40;;;11.00;;
59587;SDS011;45412;54.472;18.464;2024-02-26T14:26:28;19.60;;;10.60;;
59587;SDS011;45412;54.472;18.464;2024-02-26T14:29:14;20.00;;;11.60;;
59587;SDS011;45412;54.472;18.464;2024-02-26T14:32:03;18.00;;;10.50;;
59587;SDS011;45412;54.472;18.464;2024-02-26T14:34:50;20.30;;;10.30;;
59587;SDS011;45412;54.472;18.464;2024-02-26T14:37:36;22.80;;;11.00;;
59587;SDS011;45412;54.472;18.464;2024-02-26T14:40:22;21.40;;;11.80;;
59587;SDS011;45412;54.472;18.464;2024-02-26T14:43:08;20.80;;;11.00;;
59587;SDS011;45412;54.472;18.464;2024-02-26T14:45:57;19.00;;;10.20;;
59587;SDS011;45412;54.472;18.464;2024-02-26T14:48:43;22.20;;;10.60;;
59587;SDS011;45412;54.472;18.464;2024-02-26T14:51:30;19.30;;;10.30;;
59587;SDS011;45412;54.472;18.464;2024-02-26T14:54:16;21.20;;;11.90;;
59587;SDS011;45412;54.472;18.464;2024-02-26T14:57:04;18.90;;;9.30;;
59587;SDS011;45412;54.472;18.464;2024-02-26T14:59:51;21.60;;;10.70;;
59587;SDS011;45412;54.472;18.464;2024-02-26T15:02:37;17.10;;;9.10;;
59587;SDS011;45412;54.472;18.464;2024-02-26T15:05:23;20.60;;;10.70;;
59587;SDS011;45412;54.472;18.464;2024-02-26T15:08:10;21.80;;;11.90;;
59587;SDS011;45412;54.472;18.464;2024-02-26T15:11:01;21.40;;;11.40;;
59587;SDS011;45412;54.472;18.464;2024-02-26T15:13:47;22.40;;;11.70;;
59587;SDS011;45412;54.472;18.464;2024-02-26T15:16:33;21.10;;;10.60;;
59587;SDS011;45412;54.472;18.464;2024-02-26T15:19:19;20.90;;;10.80;;
59587;SDS011;45412;54.472;18.464;2024-02-26T15:22:06;22.30;;;11.80;;
59587;SDS011;45412;54.472;18.464;2024-02-26T15:24:52;21.00;;;11.10;;
59587;SDS011;45412;54.472;18.464;2024-02-26T15:27:38;26.20;;;13.10;;
59587;SDS011;45412;54.472;18.464;2024-02-26T15:30:25;26.10;;;13.40;;
59587;SDS011;45412;54.472;18.464;2024-02-26T15:33:13;26.00;;;12.10;;
59587;SDS011;45412;54.472;18.464;2024-02-26T15:35:59;21.80;;;11.70;;
59587;SDS011;45412;54.472;18.464;2024-02-26T15:38:46;22.10;;;11.80;;
59587;SDS011;45412;54.472;18.464;2024-02-26T15:41:32;24.60;;;12.70;;
59587;SDS011;45412;54.472;18.464;2024-02-26T15:44:18;25.10;;;11.90;;
59587;SDS011;45412;54.472;18.464;2024-02-26T15:47:05;24.10;;;12.60;;
59587;SDS011;45412;54.472;18.464;2024-02-26T15:49:51;24.30;;;12.50;;
59587;SDS011;45412;54.472;18.464;2024-02-26T15:52:38;20.60;;;11.20;;
59587;SDS011;45412;54.472;18.464;2024-02-26T15:55:25;22.60;;;11.20;;
59587;SDS011;45412;54.472;18.464;2024-02-26T15:58:12;24.20;;;12.10;;
59587;SDS011;45412;54.472;18.464;2024-02-26T16:00:58;25.30;;;11.30;;
59587;SDS011;45412;54.472;18.464;2024-02-26T16:03:57;27.40;;;13.90;;
59587;SDS011;45412;54.472;18.464;2024-02-26T16:06:46;24.70;;;11.70;;
59587;SDS011;45412;54.472;18.464;2024-02-26T16:12:37;25.00;;;10.80;;